createdAt,value
2023-05-20T00:00:26.762Z,1.00
2023-05-20T00:02:28.833Z,1.00
2023-05-20T00:04:30.771Z,1.00
2023-05-20T00:06:32.537Z,1.00
2023-05-20T00:08:34.228Z,1.00
2023-05-20T00:10:36.419Z,1.00
2023-05-20T00:12:41.292Z,1.00
2023-05-20T00:14:43.337Z,1.00
2023-05-20T00:16:45.300Z,1.00
2023-05-20T00:18:47.303Z,1.00
2023-05-20T00:20:49.204Z,1.00
2023-05-20T00:22:50.888Z,1.00
2023-05-20T00:24:52.647Z,1.00
2023-05-20T00:26:54.539Z,1.00
2023-05-20T00:28:56.227Z,1.00
2023-05-20T00:30:58.444Z,1.00
2023-05-20T00:33:00.248Z,1.00
2023-05-20T00:35:02.903Z,1.00
2023-05-20T00:37:04.684Z,1.00
2023-05-20T00:39:06.450Z,1.00
2023-05-20T00:41:08.521Z,1.00
2023-05-20T00:43:10.525Z,1.00
2023-05-20T00:45:12.316Z,2.00
2023-05-20T00:47:16.282Z,10.00
2023-05-20T00:49:17.994Z,12.50
2023-05-20T00:51:20.754Z,18.70
2023-05-20T00:53:23.345Z,32.70
2023-05-20T00:55:26.189Z,34.20
2023-05-20T00:57:28.561Z,32.50
2023-05-20T00:59:31.540Z,27.60
2023-05-20T01:01:33.436Z,30.00
2023-05-20T01:03:35.733Z,40.90
2023-05-20T01:05:39.225Z,45.00
2023-05-20T01:07:43.515Z,60.00
2023-05-20T01:09:45.634Z,51.80
2023-05-20T01:12:02.774Z,51.90
2023-05-20T01:14:08.300Z,54.80
2023-05-20T01:16:11.554Z,56.90
2023-05-20T01:18:18.674Z,44.00
2023-05-20T01:20:21.594Z,37.60
2023-05-20T01:22:27.899Z,30.80
2023-05-20T01:24:29.611Z,26.60
2023-05-20T01:26:31.510Z,23.20
2023-05-20T01:28:38.671Z,28.30
2023-05-20T01:30:48.635Z,38.40
2023-05-20T01:32:58.338Z,43.60
2023-05-20T01:35:01.564Z,58.40
2023-05-20T01:37:05.836Z,74.70
2023-05-20T01:39:08.250Z,91.00
2023-05-20T01:41:11.427Z,99.60
2023-05-20T01:43:16.219Z,99.90
2023-05-20T01:45:19.860Z,99.90
2023-05-20T01:47:21.634Z,99.90
2023-05-20T01:49:23.336Z,99.90
2023-05-20T01:51:25.028Z,99.90
2023-05-20T01:53:26.867Z,99.90
2023-05-20T01:55:28.623Z,99.90
2023-05-20T01:57:30.472Z,99.90
2023-05-20T01:59:33.689Z,99.90
2023-05-20T02:01:35.642Z,99.90
2023-05-20T02:03:37.329Z,99.90
2023-05-20T02:05:39.174Z,99.90
2023-05-20T02:07:41.211Z,99.90
2023-05-20T02:09:43.052Z,99.90
2023-05-20T02:11:44.774Z,99.90
2023-05-20T02:13:46.566Z,99.90
2023-05-20T02:15:48.298Z,99.90
2023-05-20T02:17:50.000Z,99.90
2023-05-20T02:19:52.155Z,99.90
2023-05-20T02:21:54.079Z,99.90
2023-05-20T02:23:56.007Z,99.90
2023-05-20T02:25:58.016Z,99.90
2023-05-20T02:27:59.859Z,99.90
2023-05-20T02:30:02.018Z,99.90
2023-05-20T02:32:04.404Z,99.90
2023-05-20T02:34:06.507Z,99.90
2023-05-20T02:36:08.418Z,99.90
2023-05-20T02:38:11.211Z,99.90
2023-05-20T02:40:12.910Z,99.90
2023-05-20T02:42:14.853Z,99.90
2023-05-20T02:44:16.906Z,99.90
2023-05-20T02:46:19.792Z,99.90
2023-05-20T02:48:21.700Z,99.90
2023-05-20T02:50:23.365Z,99.90
2023-05-20T02:52:25.197Z,99.90
2023-05-20T02:54:26.966Z,99.90
2023-05-20T02:56:28.710Z,99.90
2023-05-20T02:58:30.772Z,99.90
2023-05-20T03:00:35.453Z,99.90
2023-05-20T03:02:37.203Z,99.90
2023-05-20T03:04:39.167Z,99.90
2023-05-20T03:06:44.401Z,99.90
2023-05-20T03:08:46.206Z,99.90
2023-05-20T03:10:48.588Z,99.90
2023-05-20T03:12:50.365Z,99.90
2023-05-20T03:14:55.380Z,99.90
2023-05-20T03:16:57.237Z,99.90
2023-05-20T03:18:58.951Z,99.90
2023-05-20T03:21:00.649Z,99.90
2023-05-20T03:23:02.774Z,99.90
2023-05-20T03:25:06.126Z,99.90
2023-05-20T03:27:07.921Z,99.90
2023-05-20T03:29:11.039Z,99.90
2023-05-20T03:31:12.900Z,99.90
2023-05-20T03:33:15.915Z,99.90
2023-05-20T03:35:17.905Z,99.90
2023-05-20T03:37:19.579Z,99.90
2023-05-20T03:39:21.337Z,99.90
2023-05-20T03:41:23.228Z,99.90
2023-05-20T03:43:25.592Z,99.90
2023-05-20T03:45:27.526Z,99.90
2023-05-20T03:47:29.802Z,99.90
2023-05-20T03:49:31.495Z,99.90
2023-05-20T03:51:33.252Z,99.90
2023-05-20T03:53:35.006Z,99.90
2023-05-20T03:55:36.878Z,99.90
2023-05-20T03:57:38.938Z,99.90
2023-05-20T03:59:41.036Z,99.90
2023-05-20T04:01:42.783Z,99.90
2023-05-20T04:03:44.672Z,99.90
2023-05-20T04:05:46.574Z,99.90
2023-05-20T04:07:48.610Z,99.90
2023-05-20T04:09:50.392Z,99.90
2023-05-20T04:11:52.204Z,99.90
2023-05-20T04:13:54.782Z,99.90
2023-05-20T04:15:56.508Z,99.90
2023-05-20T04:17:58.410Z,99.90
2023-05-20T04:20:00.440Z,99.90
2023-05-20T04:22:02.278Z,99.90
2023-05-20T04:24:04.122Z,99.90
2023-05-20T04:26:05.904Z,99.90
2023-05-20T04:28:09.165Z,99.90
2023-05-20T04:30:11.925Z,99.90
2023-05-20T04:32:14.876Z,99.90
2023-05-20T04:34:19.599Z,99.90
2023-05-20T04:36:22.124Z,99.90
2023-05-20T04:38:29.778Z,99.90
2023-05-20T04:40:32.459Z,99.90
2023-05-20T04:42:34.302Z,99.90
2023-05-20T04:44:36.168Z,99.90
2023-05-20T04:46:38.079Z,99.90
2023-05-20T04:48:39.810Z,99.90
2023-05-20T04:50:41.929Z,99.90
2023-05-20T04:52:45.799Z,99.90
2023-05-20T04:54:48.315Z,99.90
2023-05-20T04:56:50.991Z,99.90
2023-05-20T04:58:52.917Z,99.90
2023-05-20T05:00:54.598Z,99.90
2023-05-20T05:02:56.494Z,99.90
2023-05-20T05:04:58.412Z,99.90
2023-05-20T05:07:00.213Z,99.90
2023-05-20T05:09:02.007Z,99.90
2023-05-20T05:11:06.590Z,99.90
2023-05-20T05:13:08.358Z,99.90
2023-05-20T05:15:10.992Z,99.90
2023-05-20T05:17:12.748Z,99.90
2023-05-20T05:19:14.678Z,99.90
2023-05-20T05:21:16.584Z,99.90
2023-05-20T05:23:18.292Z,99.90
2023-05-20T05:25:20.353Z,99.90
2023-05-20T05:27:22.900Z,89.50
2023-05-20T05:29:24.796Z,81.80
2023-05-20T05:31:26.573Z,80.60
2023-05-20T05:33:28.528Z,63.90
2023-05-20T05:35:30.386Z,81.90
2023-05-20T05:37:32.166Z,76.60
2023-05-20T05:39:34.568Z,51.00
2023-05-20T05:41:36.312Z,71.50
2023-05-20T05:43:38.082Z,69.60
2023-05-20T05:45:40.243Z,80.00
2023-05-20T05:47:43.014Z,43.20
2023-05-20T05:49:44.757Z,39.00
2023-05-20T05:51:46.536Z,36.40
2023-05-20T05:53:48.275Z,46.70
2023-05-20T05:55:49.936Z,47.00
2023-05-20T05:57:51.886Z,47.90
2023-05-20T05:59:53.609Z,56.80
2023-05-20T06:01:55.564Z,31.70
2023-05-20T06:03:57.390Z,37.20
2023-05-20T06:05:59.274Z,39.50
2023-05-20T06:08:01.157Z,20.90
2023-05-20T06:10:02.925Z,12.00
2023-05-20T06:12:05.101Z,1.00
2023-05-20T06:14:06.824Z,1.00
2023-05-20T06:16:08.672Z,1.00
2023-05-20T06:18:10.430Z,1.00
2023-05-20T06:20:12.623Z,1.00
2023-05-20T06:22:14.298Z,1.00
2023-05-20T06:24:16.158Z,1.00
2023-05-20T06:26:17.988Z,1.00
2023-05-20T06:28:20.503Z,1.00
2023-05-20T06:30:22.265Z,1.00
2023-05-20T06:32:24.037Z,1.00
2023-05-20T06:34:26.058Z,1.00
2023-05-20T06:36:28.693Z,1.00
2023-05-20T06:38:30.406Z,1.00
2023-05-20T06:40:32.161Z,1.00
2023-05-20T06:42:33.818Z,1.00
2023-05-20T06:44:35.550Z,1.00
2023-05-20T06:46:37.502Z,1.00
2023-05-20T06:48:39.274Z,1.00
2023-05-20T06:50:41.010Z,99.90
2023-05-20T06:52:42.707Z,1.00
2023-05-20T06:54:44.405Z,99.90
2023-05-20T06:56:46.884Z,99.90
2023-05-20T06:58:48.622Z,99.90
2023-05-20T07:00:50.439Z,99.90
2023-05-20T07:02:52.269Z,73.40
2023-05-20T07:04:54.036Z,99.90
2023-05-20T07:06:56.090Z,1.00
2023-05-20T07:08:57.826Z,1.00
2023-05-20T07:10:59.522Z,99.90
2023-05-20T07:13:01.256Z,1.00
2023-05-20T07:15:03.036Z,1.00
2023-05-20T07:17:05.193Z,99.90
2023-05-20T07:19:06.965Z,99.90
2023-05-20T07:21:08.707Z,1.00
2023-05-20T07:23:10.396Z,99.90
2023-05-20T07:25:12.166Z,99.90
2023-05-20T07:27:14.156Z,99.90
2023-05-20T07:29:16.227Z,99.90
2023-05-20T07:31:18.086Z,1.00
2023-05-20T07:33:19.803Z,1.00
2023-05-20T07:35:21.522Z,99.90
2023-05-20T07:37:23.324Z,99.90
2023-05-20T07:39:25.082Z,99.90
2023-05-20T07:41:27.145Z,99.90
2023-05-20T07:43:28.879Z,99.90
2023-05-20T07:45:30.880Z,1.00
2023-05-20T07:47:32.937Z,99.90
2023-05-20T07:49:34.695Z,99.90
2023-05-20T07:51:36.644Z,62.80
2023-05-20T07:53:38.365Z,99.90
2023-05-20T07:55:40.072Z,1.00
2023-05-20T07:57:44.106Z,84.40
2023-05-20T07:59:46.504Z,99.90
2023-05-20T08:01:48.457Z,1.00
2023-05-20T08:03:50.744Z,1.00
2023-05-20T08:05:52.683Z,1.00
2023-05-20T08:07:54.478Z,1.00
2023-05-20T08:09:57.120Z,99.90
2023-05-20T08:11:58.790Z,1.00
2023-05-20T08:14:00.554Z,99.90
2023-05-20T08:16:04.079Z,99.90
2023-05-20T08:18:06.032Z,1.00
2023-05-20T08:20:08.857Z,99.90
2023-05-20T08:22:10.900Z,1.00
2023-05-20T08:24:12.608Z,98.70
2023-05-20T08:26:14.583Z,1.00
2023-05-20T08:28:16.457Z,1.00
2023-05-20T08:30:18.206Z,1.00
2023-05-20T08:32:20.153Z,1.00
2023-05-20T08:34:22.294Z,1.00
2023-05-20T08:36:24.085Z,1.00
2023-05-20T08:38:26.232Z,99.90
2023-05-20T08:40:27.945Z,99.90
2023-05-20T08:42:30.034Z,1.00
2023-05-20T08:44:32.259Z,99.90
2023-05-20T08:46:35.948Z,99.90
2023-05-20T08:48:37.936Z,99.90
2023-05-20T08:50:40.138Z,99.90
2023-05-20T08:52:47.085Z,1.00
2023-05-20T08:54:50.156Z,1.00
2023-05-20T08:56:54.077Z,1.00
2023-05-20T08:58:56.513Z,1.00
2023-05-20T09:01:02.238Z,1.00
2023-05-20T09:03:05.355Z,1.00
2023-05-20T09:05:08.862Z,48.20
2023-05-20T09:07:10.947Z,1.00
2023-05-20T09:09:16.066Z,1.00
2023-05-20T09:11:18.018Z,1.00
2023-05-20T09:13:20.975Z,1.00
2023-05-20T09:15:24.638Z,1.00
2023-05-20T09:17:26.908Z,1.00
2023-05-20T09:19:28.788Z,99.90
2023-05-20T09:21:31.266Z,99.90
2023-05-20T09:23:33.127Z,99.90
2023-05-20T09:25:36.693Z,99.90
2023-05-20T09:27:39.719Z,99.90
2023-05-20T09:29:41.606Z,99.90
2023-05-20T09:31:43.752Z,99.90
2023-05-20T09:33:45.475Z,99.90
2023-05-20T09:35:48.439Z,99.90
2023-05-20T09:37:54.755Z,94.20
2023-05-20T09:40:00.374Z,87.80
2023-05-20T09:42:18.483Z,63.50
2023-05-20T09:44:21.379Z,58.00
2023-05-20T09:46:23.268Z,55.20
2023-05-20T09:48:25.593Z,43.60
2023-05-20T09:50:28.834Z,45.60
2023-05-20T09:52:31.470Z,38.30
2023-05-20T09:54:35.686Z,28.40
2023-05-20T09:56:37.736Z,24.60
2023-05-20T09:58:40.391Z,23.80
2023-05-20T10:00:42.162Z,36.80
2023-05-20T10:02:46.442Z,70.40
2023-05-20T10:04:51.342Z,58.80
2023-05-20T10:07:11.743Z,99.90
2023-05-20T10:09:39.193Z,99.90
2023-05-20T10:12:02.266Z,93.80
2023-05-20T10:14:07.022Z,99.90
2023-05-20T10:16:36.876Z,90.20
2023-05-20T10:19:15.448Z,98.70
2023-05-20T10:21:19.224Z,99.90
2023-05-20T10:23:27.612Z,99.90
2023-05-20T10:25:29.683Z,99.90
2023-05-20T10:27:31.874Z,99.90
2023-05-20T10:29:57.437Z,99.90
2023-05-20T10:31:59.183Z,99.90
2023-05-20T10:34:01.099Z,99.90
2023-05-20T10:36:03.767Z,99.90
2023-05-20T10:38:13.080Z,92.80
2023-05-20T10:40:16.441Z,87.00
2023-05-20T10:42:28.842Z,95.10
2023-05-20T10:44:41.351Z,99.90
2023-05-20T10:48:50.385Z,99.90
2023-05-20T10:50:57.006Z,99.90
2023-05-20T10:53:07.002Z,99.90
2023-05-20T10:55:19.512Z,99.90
2023-05-20T10:57:22.014Z,99.90
2023-05-20T10:59:24.077Z,99.90
2023-05-20T11:01:27.202Z,99.90
2023-05-20T11:03:30.270Z,99.90
2023-05-20T11:05:32.606Z,99.90
2023-05-20T11:07:34.462Z,99.90
2023-05-20T11:09:36.389Z,96.50
2023-05-20T11:11:38.678Z,99.90
2023-05-20T11:13:40.647Z,93.70
2023-05-20T11:15:42.749Z,64.80
2023-05-20T11:18:04.468Z,73.60
2023-05-20T11:20:07.095Z,65.10
2023-05-20T11:22:08.962Z,55.00
2023-05-20T11:24:11.085Z,42.20
2023-05-20T11:26:12.842Z,35.30
2023-05-20T11:28:14.793Z,29.80
2023-05-20T11:30:17.250Z,33.60
2023-05-20T11:32:20.387Z,27.20
2023-05-20T11:34:24.979Z,29.10
2023-05-20T11:36:28.994Z,41.50
2023-05-20T11:38:30.726Z,39.00
2023-05-20T11:40:46.342Z,65.00
2023-05-20T11:43:03.060Z,53.70
2023-05-20T11:45:05.321Z,37.70
2023-05-20T11:47:07.124Z,35.00
2023-05-20T11:49:09.096Z,23.60
2023-05-20T11:51:10.969Z,24.80
2023-05-20T11:53:20.842Z,32.90
2023-05-20T11:55:22.510Z,18.40
2023-05-20T11:57:24.195Z,14.30
2023-05-20T11:59:26.042Z,8.90
2023-05-20T12:01:30.846Z,17.30
2023-05-20T12:03:33.123Z,12.80
2023-05-20T12:05:35.086Z,8.90
2023-05-20T12:07:36.854Z,8.00
2023-05-20T12:09:38.588Z,2.30
2023-05-20T12:11:41.585Z,1.00
2023-05-20T12:13:43.661Z,1.00
2023-05-20T12:15:45.669Z,1.00
2023-05-20T12:17:50.055Z,1.70
2023-05-20T12:19:51.830Z,5.10
2023-05-20T12:21:53.640Z,8.40
2023-05-20T12:23:58.224Z,10.20
2023-05-20T12:26:00.451Z,23.40
2023-05-20T12:28:02.518Z,22.10
2023-05-20T12:30:05.439Z,22.20
2023-05-20T12:32:07.811Z,24.70
2023-05-20T12:34:09.612Z,26.80
2023-05-20T12:36:11.461Z,71.20
2023-05-20T12:38:13.300Z,84.60
2023-05-20T12:40:15.175Z,90.40
2023-05-20T12:42:16.918Z,99.90
2023-05-20T12:44:18.641Z,99.90
2023-05-20T12:46:20.604Z,99.90
2023-05-20T12:48:22.471Z,99.90
2023-05-20T12:50:25.787Z,99.90
2023-05-20T12:52:27.830Z,99.90
2023-05-20T12:54:29.583Z,95.80
2023-05-20T12:56:31.607Z,99.90
2023-05-20T12:58:33.360Z,99.90
2023-05-20T13:00:36.215Z,99.90
2023-05-20T13:02:40.108Z,97.80
2023-05-20T13:04:42.130Z,99.90
2023-05-20T13:06:43.863Z,92.90
2023-05-20T13:08:45.779Z,76.20
2023-05-20T13:10:47.546Z,65.00
2023-05-20T13:12:49.330Z,58.20
2023-05-20T13:14:51.359Z,58.00
2023-05-20T13:16:56.261Z,45.10
2023-05-20T13:18:58.027Z,36.90
2023-05-20T13:20:59.790Z,31.00
2023-05-20T13:23:01.561Z,27.90
2023-05-20T13:25:04.330Z,19.90
2023-05-20T13:27:06.263Z,14.90
2023-05-20T13:29:07.964Z,7.00
2023-05-20T13:31:09.773Z,4.30
2023-05-20T13:33:11.563Z,11.10
2023-05-20T13:35:14.553Z,14.50
2023-05-20T13:37:16.291Z,14.70
2023-05-20T13:39:17.984Z,39.00
2023-05-20T13:41:20.039Z,55.60
2023-05-20T13:43:21.791Z,76.10
2023-05-20T13:45:23.582Z,99.00
2023-05-20T13:47:25.318Z,99.90
2023-05-20T13:49:27.148Z,99.90
2023-05-20T13:51:30.894Z,99.90
2023-05-20T13:53:32.605Z,99.90
2023-05-20T13:55:34.371Z,99.90
2023-05-20T13:57:36.403Z,99.90
2023-05-20T13:59:38.658Z,99.90
2023-05-20T14:01:44.944Z,99.90
2023-05-20T14:03:46.949Z,99.90
2023-05-20T14:05:48.755Z,99.90
2023-05-20T14:07:50.704Z,99.90
2023-05-20T14:09:52.466Z,99.90
2023-05-20T14:11:54.109Z,99.90
2023-05-20T14:13:55.823Z,99.90
2023-05-20T14:15:57.848Z,99.90
2023-05-20T14:17:59.690Z,99.90
2023-05-20T14:20:01.451Z,99.90
2023-05-20T14:22:03.365Z,99.90
2023-05-20T14:24:05.512Z,99.90
2023-05-20T14:26:07.336Z,99.90
2023-05-20T14:28:09.206Z,99.90
2023-05-20T14:30:11.308Z,78.60
2023-05-20T14:32:14.156Z,52.60
2023-05-20T14:34:16.303Z,39.00
2023-05-20T14:36:18.026Z,26.30
2023-05-20T14:38:21.429Z,29.50
2023-05-20T14:40:23.314Z,18.50
2023-05-20T14:42:25.234Z,16.20
2023-05-20T14:44:26.927Z,12.30
2023-05-20T14:46:28.734Z,12.80
2023-05-20T14:48:30.735Z,15.40
2023-05-20T14:50:32.498Z,11.20
2023-05-20T14:52:34.512Z,14.50
2023-05-20T14:54:36.244Z,14.50
2023-05-20T14:56:38.417Z,14.00
2023-05-20T14:58:40.155Z,10.80
2023-05-20T15:00:42.212Z,18.40
2023-05-20T15:02:44.031Z,38.70
2023-05-20T15:04:47.823Z,24.70
2023-05-20T15:06:49.793Z,45.60
2023-05-20T15:08:51.859Z,78.40
2023-05-20T15:10:53.641Z,99.30
2023-05-20T15:12:55.388Z,96.60
2023-05-20T15:14:57.245Z,99.90
2023-05-20T15:16:59.001Z,99.90
2023-05-20T15:19:01.249Z,99.90
2023-05-20T15:21:03.100Z,99.90
2023-05-20T15:23:04.825Z,99.90
2023-05-20T15:25:06.884Z,99.90
2023-05-20T15:27:08.570Z,99.90
2023-05-20T15:29:10.269Z,99.90
2023-05-20T15:31:11.989Z,99.90
2023-05-20T15:33:13.834Z,99.90
2023-05-20T15:35:15.694Z,99.90
2023-05-20T15:37:17.423Z,99.90
2023-05-20T15:39:19.081Z,99.90
2023-05-20T15:41:21.643Z,99.90
2023-05-20T15:43:23.346Z,99.90
2023-05-20T15:45:25.247Z,99.90
2023-05-20T15:47:27.220Z,99.90
2023-05-20T15:49:29.155Z,99.90
2023-05-20T15:51:30.895Z,99.90
2023-05-20T15:53:33.019Z,99.90
2023-05-20T15:55:35.558Z,99.90
2023-05-20T15:57:37.314Z,99.90
2023-05-20T15:59:39.165Z,99.90
2023-05-20T16:01:40.979Z,99.90
2023-05-20T16:03:44.060Z,99.90
2023-05-20T16:05:45.904Z,99.90
2023-05-20T16:07:47.838Z,99.90
2023-05-20T16:09:49.496Z,99.90
2023-05-20T16:11:51.556Z,99.90
2023-05-20T16:13:53.335Z,99.90
2023-05-20T16:15:57.684Z,99.90
2023-05-20T16:17:59.622Z,99.90
2023-05-20T16:20:01.597Z,99.90
2023-05-20T16:22:03.551Z,99.90
2023-05-20T16:24:05.508Z,99.90
2023-05-20T16:26:07.189Z,99.90
2023-05-20T16:28:08.973Z,99.90
2023-05-20T16:30:12.168Z,99.90
2023-05-20T16:32:13.860Z,99.90
2023-05-20T16:34:16.766Z,99.90
2023-05-20T16:36:18.559Z,99.90
2023-05-20T16:38:20.434Z,99.90
2023-05-20T16:40:22.278Z,99.90
2023-05-20T16:42:24.158Z,99.90
2023-05-20T16:44:26.027Z,99.90
2023-05-20T16:46:27.765Z,99.90
2023-05-20T16:48:29.523Z,99.90
2023-05-20T16:50:31.489Z,99.90
2023-05-20T16:52:34.694Z,99.90
2023-05-20T16:54:36.529Z,99.90
2023-05-20T16:56:38.287Z,99.90
2023-05-20T16:58:40.167Z,99.90
2023-05-20T17:00:42.078Z,99.90
2023-05-20T17:02:43.925Z,99.90
2023-05-20T17:04:46.255Z,99.90
2023-05-20T17:06:49.880Z,99.90
2023-05-20T17:08:51.590Z,99.90
2023-05-20T17:10:54.303Z,99.90
2023-05-20T17:12:56.254Z,99.90
2023-05-20T17:14:58.006Z,99.90
2023-05-20T17:16:59.810Z,99.90
2023-05-20T17:19:01.769Z,99.90
2023-05-20T17:21:03.484Z,99.90
2023-05-20T17:23:05.205Z,99.90
2023-05-20T17:25:07.266Z,1.00
2023-05-20T17:27:08.973Z,1.00
2023-05-20T17:29:10.879Z,1.00
2023-05-20T17:31:12.896Z,99.90
2023-05-20T17:33:14.648Z,99.90
2023-05-20T17:35:16.505Z,99.90
2023-05-20T17:37:18.205Z,99.90
2023-05-20T17:39:20.098Z,1.00
2023-05-20T17:41:21.974Z,1.00
2023-05-20T17:43:25.495Z,1.00
2023-05-20T17:45:27.187Z,1.00
2023-05-20T17:47:29.006Z,99.90
2023-05-20T17:49:30.998Z,99.90
2023-05-20T17:51:32.831Z,97.50
2023-05-20T17:53:34.666Z,99.90
2023-05-20T17:55:36.609Z,99.90
2023-05-20T17:57:38.518Z,99.90
2023-05-20T17:59:41.871Z,99.90
2023-05-20T18:01:44.723Z,99.90
2023-05-20T18:03:46.776Z,99.90
2023-05-20T18:05:48.743Z,99.90
2023-05-20T18:07:50.655Z,1.00
2023-05-20T18:09:52.375Z,1.00
2023-05-20T18:11:54.138Z,99.90
2023-05-20T18:13:59.119Z,99.30
2023-05-20T18:16:01.019Z,99.90
2023-05-20T18:18:02.845Z,1.00
2023-05-20T18:20:05.860Z,1.00
2023-05-20T18:22:08.109Z,1.00
2023-05-20T18:24:11.462Z,1.00
2023-05-20T18:26:13.167Z,18.00
2023-05-20T18:28:15.252Z,99.90
2023-05-20T18:30:16.992Z,99.90
2023-05-20T18:32:18.863Z,1.00
2023-05-20T18:34:20.841Z,1.00
2023-05-20T18:36:22.694Z,99.90
2023-05-20T18:38:24.556Z,99.90
2023-05-20T18:40:27.877Z,35.30
2023-05-20T18:42:29.744Z,1.00
2023-05-20T18:44:31.532Z,99.90
2023-05-20T18:46:33.365Z,11.50
2023-05-20T18:48:35.211Z,99.90
2023-05-20T18:50:37.503Z,11.60
2023-05-20T18:52:39.549Z,99.90
2023-05-20T18:54:41.458Z,99.90
2023-05-20T18:56:43.257Z,99.90
2023-05-20T18:58:45.926Z,99.90
2023-05-20T19:00:47.798Z,1.00
2023-05-20T19:02:49.980Z,1.00
2023-05-20T19:04:51.855Z,1.00
2023-05-20T19:06:53.911Z,1.00
2023-05-20T19:08:56.063Z,1.00
2023-05-20T19:10:57.756Z,1.00
2023-05-20T19:12:59.916Z,1.00
2023-05-20T19:15:01.668Z,1.00
2023-05-20T19:17:03.454Z,1.00
2023-05-20T19:19:05.479Z,1.00
2023-05-20T19:21:07.335Z,1.00
2023-05-20T19:23:09.075Z,1.00
2023-05-20T19:25:11.385Z,99.90
2023-05-20T19:27:13.045Z,64.10
2023-05-20T19:29:15.379Z,99.90
2023-05-20T19:31:21.155Z,99.90
2023-05-20T19:33:23.123Z,99.90
2023-05-20T19:35:24.845Z,99.90
2023-05-20T19:37:26.526Z,99.90
2023-05-20T19:39:30.089Z,99.90
2023-05-20T19:41:31.850Z,99.90
2023-05-20T19:43:33.888Z,99.90
2023-05-20T19:45:36.733Z,99.90
2023-05-20T19:47:38.802Z,99.90
2023-05-20T19:49:40.757Z,99.90
2023-05-20T19:51:42.607Z,99.90
2023-05-20T19:53:44.368Z,99.90
2023-05-20T19:55:46.300Z,99.90
2023-05-20T19:57:53.164Z,99.90
2023-05-20T19:59:54.854Z,99.90
2023-05-20T20:01:56.731Z,99.90
2023-05-20T20:03:58.544Z,99.90
2023-05-20T20:06:00.443Z,99.90
2023-05-20T20:08:02.237Z,99.90
2023-05-20T20:10:04.245Z,1.00
2023-05-20T20:12:07.056Z,1.00
2023-05-20T20:14:08.740Z,1.00
2023-05-20T20:16:10.588Z,1.00
2023-05-20T20:18:12.324Z,1.00
2023-05-20T20:20:14.402Z,1.00
2023-05-20T20:22:17.682Z,1.00
2023-05-20T20:24:20.366Z,1.00
2023-05-20T20:26:26.000Z,1.00
2023-05-20T20:28:27.852Z,52.80
2023-05-20T20:30:29.688Z,25.90
2023-05-20T20:32:31.676Z,1.00
2023-05-20T20:34:33.502Z,15.50
2023-05-20T20:36:35.185Z,1.00
2023-05-20T20:38:37.591Z,75.00
2023-05-20T20:40:42.203Z,48.70
2023-05-20T20:42:45.319Z,1.00
2023-05-20T20:44:48.334Z,99.90
2023-05-20T20:46:55.136Z,4.80
2023-05-20T20:48:56.983Z,15.00
2023-05-20T20:50:59.078Z,1.00
2023-05-20T20:53:01.296Z,1.00
2023-05-20T20:55:04.463Z,91.70
2023-05-20T20:57:06.301Z,68.60
2023-05-20T20:59:10.275Z,63.10
2023-05-20T21:01:12.285Z,99.90
2023-05-20T21:03:14.042Z,99.90
2023-05-20T21:05:18.723Z,99.90
2023-05-20T21:07:20.436Z,99.90
2023-05-20T21:09:22.539Z,99.90
2023-05-20T21:11:28.127Z,99.90
2023-05-20T21:13:30.858Z,99.90
2023-05-20T21:15:32.646Z,99.90
2023-05-20T21:17:34.410Z,99.90
2023-05-20T21:19:36.247Z,99.90
2023-05-20T21:21:37.915Z,99.90
2023-05-20T21:23:40.388Z,99.90
2023-05-20T21:25:42.092Z,99.90
2023-05-20T21:27:43.912Z,99.90
2023-05-20T21:29:45.609Z,99.90
2023-05-20T21:31:47.419Z,99.90
2023-05-20T21:33:49.168Z,99.90
2023-05-20T21:35:50.918Z,99.90
2023-05-20T21:37:52.631Z,99.90
2023-05-20T21:39:54.328Z,99.90
2023-05-20T21:41:56.133Z,99.90
2023-05-20T21:43:57.806Z,99.90
2023-05-20T21:45:59.473Z,99.90
2023-05-20T21:48:01.168Z,99.90
2023-05-20T21:50:03.537Z,99.90
2023-05-20T21:52:05.788Z,99.90
2023-05-20T21:54:07.608Z,99.90
2023-05-20T21:56:09.386Z,99.90
2023-05-20T21:58:11.143Z,99.90
2023-05-20T22:00:15.179Z,99.90
2023-05-20T22:02:17.717Z,99.90
2023-05-20T22:04:19.393Z,99.90
2023-05-20T22:06:21.502Z,99.90
2023-05-20T22:08:23.187Z,99.90
2023-05-20T22:10:24.935Z,99.90
2023-05-20T22:12:27.583Z,99.90
2023-05-20T22:14:29.459Z,1.00
2023-05-20T22:16:31.237Z,1.00
2023-05-20T22:18:32.959Z,1.00
2023-05-20T22:20:34.831Z,1.00
2023-05-20T22:22:38.999Z,1.00
2023-05-20T22:24:40.796Z,1.00
2023-05-20T22:26:42.483Z,1.00
2023-05-20T22:28:44.282Z,1.00
2023-05-20T22:30:46.017Z,1.00
2023-05-20T22:32:47.834Z,1.00
2023-05-20T22:34:49.543Z,1.00
2023-05-20T22:36:53.457Z,1.00
2023-05-20T22:38:55.132Z,1.00
2023-05-20T22:40:56.922Z,1.00
2023-05-20T22:42:58.648Z,1.00
2023-05-20T22:45:00.404Z,1.00
2023-05-20T22:47:02.204Z,1.00
2023-05-20T22:49:03.975Z,1.00
2023-05-20T22:51:05.770Z,1.00
2023-05-20T22:53:07.458Z,1.00
2023-05-20T22:55:09.948Z,1.00
2023-05-20T22:57:12.203Z,1.00
2023-05-20T22:59:13.923Z,1.00
2023-05-20T23:01:16.745Z,99.90
2023-05-20T23:03:18.606Z,1.00
2023-05-20T23:05:21.078Z,1.00
2023-05-20T23:07:23.573Z,1.00
2023-05-20T23:09:25.437Z,1.00
2023-05-20T23:11:28.243Z,1.00
2023-05-20T23:13:29.973Z,1.00
2023-05-20T23:15:32.468Z,1.00
2023-05-20T23:17:34.184Z,1.00
2023-05-20T23:19:35.900Z,1.00
2023-05-20T23:21:38.190Z,1.00
2023-05-20T23:23:39.931Z,1.00
2023-05-20T23:25:43.642Z,1.00
2023-05-20T23:27:46.790Z,1.00
2023-05-20T23:29:48.521Z,1.00
2023-05-20T23:31:51.150Z,1.00
2023-05-20T23:33:54.054Z,1.00
2023-05-20T23:35:56.154Z,1.00
2023-05-20T23:37:57.845Z,1.00
2023-05-20T23:39:59.523Z,1.00
2023-05-20T23:42:01.369Z,1.00
2023-05-20T23:44:03.968Z,1.00
2023-05-20T23:46:05.815Z,1.00
2023-05-20T23:48:11.150Z,1.00
2023-05-20T23:50:13.756Z,1.00
2023-05-20T23:52:15.447Z,1.00
2023-05-20T23:54:17.954Z,1.00
2023-05-20T23:56:19.653Z,1.00
2023-05-20T23:58:21.582Z,1.00
